Time;durP1;ratioP1;P1;durP2;ratioP2;P2;SDS_P1;SDS_P2;PMS_P1;PMS_P2;Temp;Humidity;BMP_temperature;BMP_pressure;BME280_temperature;BME280_humidity;BME280_pressure;Samples;Min_cycle;Max_cycle;Signal;HPM_P1;HPM_P2
2021/07/02 00:01:42;;;;;;;5.95;4.68;;;;;;;19.74;77.02;99286.50;5111468;27;20408;-81
2021/07/02 00:04:23;;;;;;;10.40;5.70;;;;;;;19.39;76.73;99225.94;5112123;27;20419;-82
2021/07/02 00:07:02;;;;;;;8.25;5.00;;;;;;;19.13;76.56;99185.16;5052359;27;20461;-81
2021/07/02 00:09:48;;;;;;;6.30;5.68;;;;;;;19.74;76.51;99277.72;5113362;27;20413;-80
2021/07/02 00:12:27;;;;;;;9.07;5.80;;;;;;;19.44;76.58;99247.66;5114672;27;20133;-80
2021/07/02 00:15:08;;;;;;;6.50;5.32;;;;;;;19.54;76.50;99263.84;5173810;27;20406;-81
2021/07/02 00:17:58;;;;;;;6.97;4.97;;;;;;;19.55;76.39;99265.53;5090640;27;20134;-81
2021/07/02 00:20:36;;;;;;;8.23;5.15;;;;;;;19.50;76.54;99265.78;5111753;27;20182;-79
2021/07/02 00:23:26;;;;;;;8.88;5.10;;;;;;;19.50;76.56;99279.00;5111007;27;20767;-80
2021/07/02 00:26:04;;;;;;;5.70;4.63;;;;;;;19.44;76.56;99267.88;5069997;28;20413;-81
2021/07/02 00:28:45;;;;;;;7.18;4.75;;;;;;;19.01;76.60;99205.13;5090765;27;20932;-79
2021/07/02 00:31:31;;;;;;;6.38;4.40;;;;;;;18.62;76.68;99154.41;5111699;27;20430;-81
2021/07/02 00:34:26;;;;;;;5.35;4.38;;;;;;;19.37;76.81;99267.38;5111353;27;20417;-81
2021/07/02 00:37:11;;;;;;;8.48;4.85;;;;;;;19.33;76.47;99261.44;5131428;27;20412;-80
2021/07/02 00:39:53;;;;;;;8.45;4.38;;;;;;;18.71;76.64;99172.38;5070801;27;20127;-81
2021/07/02 00:42:57;;;;;;;4.97;4.30;;;;;;;18.42;76.88;99137.88;4959261;27;4447514;-80
2021/07/02 00:45:58;;;;;;;5.22;4.40;;;;;;;18.65;76.92;99160.38;5111530;27;20403;-79
2021/07/02 00:49:16;;;;;;;5.15;4.05;;;;;;;18.50;77.06;99138.34;5135193;27;20403;-80
2021/07/02 00:51:57;;;;;;;5.82;3.97;;;;;;;18.73;77.09;99173.16;5091028;27;20922;-79
2021/07/02 00:54:37;;;;;;;5.40;4.22;;;;;;;18.29;76.84;99095.53;5047157;27;20405;-80
2021/07/02 00:57:31;;;;;;;6.05;4.43;;;;;;;19.27;76.77;99252.06;5100264;27;1464514;-79
2021/07/02 01:00:55;;;;;;;7.88;4.53;;;;;;;18.93;76.93;99201.09;5088812;28;20133;-81
2021/07/02 01:14:06;;;;;;;6.18;4.22;;;;;;;18.62;76.71;99128.94;5090521;27;20405;-79
2021/07/02 01:16:48;;;;;;;5.40;4.05;;;;;;;18.55;76.79;99117.00;5076032;27;20409;-80
2021/07/02 01:19:35;;;;;;;6.82;4.60;;;;;;;18.32;76.57;99094.50;5128544;27;20418;-80
2021/07/02 01:22:20;;;;;;;7.22;4.60;;;;;;;18.91;76.65;99176.59;5140128;27;20397;-80
2021/07/02 01:24:59;;;;;;;4.72;3.88;;;;;;;18.74;77.03;99148.50;5145800;27;20405;-80
2021/07/02 01:27:47;;;;;;;4.63;4.00;;;;;;;19.36;77.43;99255.97;5073609;28;20430;-79
2021/07/02 01:30:27;;;;;;;4.05;3.58;;;;;;;18.72;77.32;99146.88;5109607;27;20875;-80
2021/07/02 01:33:19;;;;;;;4.43;4.00;;;;;;;19.10;76.96;99205.50;5090544;27;20412;-80
2021/07/02 01:36:32;;;;;;;5.13;3.78;;;;;;;18.95;77.27;99175.53;5091566;28;20474;-80
2021/07/02 01:39:21;;;;;;;4.63;4.00;;;;;;;19.16;76.83;99203.47;5113823;27;20408;-81
2021/07/02 01:42:09;;;;;;;4.85;3.75;;;;;;;19.27;76.76;99222.19;5152410;27;20410;-80
2021/07/02 01:44:50;;;;;;;4.38;3.90;;;;;;;19.49;76.86;99255.31;5091892;27;20405;-80
2021/07/02 01:47:27;;;;;;;4.25;3.63;;;;;;;19.50;76.88;99263.16;5110239;27;20136;-80
2021/07/02 01:50:08;;;;;;;3.92;3.60;;;;;;;19.44;76.85;99249.41;5110910;27;20938;-80
2021/07/02 01:52:47;;;;;;;6.70;3.78;;;;;;;19.53;76.62;99251.56;5046881;28;20745;-80
2021/07/02 01:55:25;;;;;;;4.70;3.50;;;;;;;19.56;76.86;99248.78;5070131;28;20410;-81
2021/07/02 01:58:06;;;;;;;4.15;3.30;;;;;;;19.57;76.54;99251.31;5102726;27;20401;-80
2021/07/02 02:00:52;;;;;;;3.72;3.40;;;;;;;19.64;76.71;99265.00;5070038;28;20433;-82
2021/07/02 02:03:34;;;;;;;4.85;3.45;;;;;;;19.59;76.61;99253.88;5110887;27;20411;-80
2021/07/02 02:06:16;;;;;;;5.03;3.88;;;;;;;19.72;76.52;99268.09;5111102;27;20408;-82
2021/07/02 02:08:53;;;;;;;4.40;3.63;;;;;;;19.69;76.50;99241.03;5110918;27;20411;-82
2021/07/02 02:11:34;;;;;;;4.45;3.50;;;;;;;19.81;76.49;99248.25;5110434;27;20403;-81
2021/07/02 02:14:12;;;;;;;4.40;3.70;;;;;;;19.75;76.31;99235.38;5152388;27;20408;-81
2021/07/02 02:16:54;;;;;;;4.70;3.78;;;;;;;19.88;76.06;99238.22;5083325;27;1442466;-80
2021/07/02 02:19:32;;;;;;;4.10;3.70;;;;;;;19.09;75.82;99113.28;5110788;27;20404;-79
2021/07/02 02:22:15;;;;;;;4.32;3.88;;;;;;;19.48;75.82;99177.09;5131829;27;20399;-80
2021/07/02 02:25:00;;;;;;;5.65;4.13;;;;;;;19.94;75.78;99264.28;5153535;27;20396;-80
2021/07/02 02:27:54;;;;;;;4.93;4.05;;;;;;;19.42;75.68;99181.78;5032758;27;20182;-80
2021/07/02 02:30:47;;;;;;;5.50;4.28;;;;;;;19.72;75.74;99246.13;5114872;27;20166;-79
2021/07/02 02:33:25;;;;;;;6.05;4.40;;;;;;;19.53;75.90;99210.19;5160173;27;20134;-78
2021/07/02 02:36:04;;;;;;;7.45;4.20;;;;;;;19.84;75.99;99258.63;5134152;27;20171;-80
2021/07/02 02:38:43;;;;;;;6.30;3.97;;;;;;;19.72;75.95;99241.69;5127779;27;20404;-81
2021/07/02 02:41:25;;;;;;;9.25;4.40;;;;;;;19.79;76.07;99258.03;5057440;28;20426;-80
2021/07/02 02:44:16;;;;;;;4.78;4.00;;;;;;;19.27;75.95;99180.84;5061260;28;20450;-80
2021/07/02 02:47:04;;;;;;;5.32;3.78;;;;;;;18.82;75.77;99108.56;5135041;27;20425;-80
2021/07/02 02:49:48;;;;;;;4.90;3.95;;;;;;;18.98;75.80;99123.56;5155368;27;20408;-81
2021/07/02 02:52:30;;;;;;;4.78;4.13;;;;;;;19.46;75.86;99200.06;5049360;27;1627334;-82
2021/07/02 02:55:17;;;;;;;5.18;4.28;;;;;;;19.26;76.01;99176.50;5114945;27;20411;-81
2021/07/02 02:57:56;;;;;;;5.20;4.38;;;;;;;19.90;75.99;99249.53;5069383;27;20412;-82
2021/07/02 03:00:41;;;;;;;6.00;4.00;;;;;;;19.29;76.01;99149.09;5022323;27;1478781;-81
2021/07/02 03:03:20;;;;;;;7.60;4.00;;;;;;;19.60;75.85;99201.94;5153968;27;20397;-81
2021/07/02 03:06:07;;;;;;;7.80;4.70;;;;;;;20.00;75.91;99278.91;5053326;28;21021;-80
2021/07/02 03:08:54;;;;;;;5.55;4.40;;;;;;;20.02;75.90;99251.50;5133624;27;20399;-80
2021/07/02 03:11:39;;;;;;;8.77;4.10;;;;;;;19.63;75.72;99183.31;5111966;27;20401;-81
2021/07/02 03:14:28;;;;;;;6.90;4.63;;;;;;;19.68;75.31;99176.81;4815572;28;7410018;-81
2021/07/02 03:17:08;;;;;;;6.85;4.68;;;;;;;20.21;74.89;99250.44;5153372;27;20414;-81
2021/07/02 03:19:50;;;;;;;6.32;4.47;;;;;;;20.29;75.27;99263.22;5132845;27;20396;-80
2021/07/02 03:22:30;;;;;;;4.80;4.32;;;;;;;20.34;75.24;99245.31;5132144;27;20422;-79
2021/07/02 03:25:08;;;;;;;6.95;4.50;;;;;;;20.30;74.80;99227.94;5127665;27;1403273;-80
2021/07/02 03:27:45;;;;;;;7.53;4.32;;;;;;;20.44;74.88;99237.69;5133967;27;20424;-78
2021/07/02 03:30:23;;;;;;;5.20;3.90;;;;;;;20.55;74.61;99245.00;5085915;28;20411;-78
2021/07/02 03:33:00;;;;;;;5.10;4.50;;;;;;;20.69;74.52;99254.75;5117575;27;20136;-79
2021/07/02 03:35:38;;;;;;;4.30;3.55;;;;;;;20.69;74.46;99237.06;5101809;27;1421634;-77
2021/07/02 03:38:19;;;;;;;4.85;4.00;;;;;;;20.90;74.03;99249.97;5115161;27;20783;-76
2021/07/02 03:40:57;;;;;;;6.07;3.95;;;;;;;20.93;73.58;99241.88;5114129;27;20776;-76
2021/07/02 03:43:36;;;;;;;6.78;4.00;;;;;;;21.04;73.43;99233.28;5106447;27;20404;-78
2021/07/02 03:46:14;;;;;;;6.15;4.20;;;;;;;21.21;73.12;99243.66;5112851;27;20412;-79
2021/07/02 03:48:51;;;;;;;6.70;4.63;;;;;;;21.37;73.07;99240.06;5111366;27;20177;-77
2021/07/02 03:51:29;;;;;;;5.97;4.28;;;;;;;21.47;72.45;99243.00;5110807;27;20411;-77
2021/07/02 03:54:06;;;;;;;8.50;4.45;;;;;;;21.53;72.09;99245.22;5110189;27;20128;-78
2021/07/02 03:59:46;;;;;;;5.53;3.97;;;;;;;21.73;71.33;99259.06;5069884;27;20415;-77
2021/07/02 04:02:24;;;;;;;5.22;4.43;;;;;;;21.80;70.84;99255.03;5110105;27;20403;-76
2021/07/02 04:05:01;;;;;;;6.53;3.80;;;;;;;21.92;70.49;99259.56;5109976;27;20140;-79
2021/07/02 04:07:37;;;;;;;4.32;3.92;;;;;;;21.91;70.57;99251.69;5142197;27;20400;-79
2021/07/02 04:10:14;;;;;;;4.63;3.40;;;;;;;22.18;70.80;99262.28;5109778;27;20148;-76
2021/07/02 04:12:50;;;;;;;4.75;3.92;;;;;;;22.22;70.18;99255.00;5109690;27;20507;-77
2021/07/02 04:15:27;;;;;;;10.52;3.78;;;;;;;22.31;69.69;99258.84;5109671;27;20484;-76
2021/07/02 04:18:05;;;;;;;4.00;3.35;;;;;;;22.27;69.63;99250.25;5109608;27;20132;-79
2021/07/02 04:20:43;;;;;;;5.78;3.47;;;;;;;22.36;69.17;99262.88;5048860;28;20408;-80
2021/07/02 04:23:21;;;;;;;3.70;3.40;;;;;;;22.31;68.95;99256.19;5069662;28;20146;-79
2021/07/02 04:25:58;;;;;;;4.53;3.20;;;;;;;22.20;68.90;99257.72;5071156;28;20429;-77
2021/07/02 04:28:35;;;;;;;5.60;3.40;;;;;;;22.32;68.91;99266.66;5109693;27;20120;-76
2021/07/02 04:31:11;;;;;;;6.88;3.50;;;;;;;22.30;68.74;99265.91;5109624;27;20141;-78
2021/07/02 04:33:48;;;;;;;6.90;3.28;;;;;;;22.48;68.73;99271.84;5109724;27;20140;-76
2021/07/02 04:36:24;;;;;;;5.03;3.28;;;;;;;22.69;68.27;99271.34;5043359;27;20143;-75
2021/07/02 04:39:03;;;;;;;3.60;3.00;;;;;;;22.87;67.83;99267.44;5108957;27;20136;-77
2021/07/02 04:41:40;;;;;;;5.20;3.30;;;;;;;22.99;67.42;99251.63;5109351;27;20412;-78
2021/07/02 04:44:17;;;;;;;4.95;3.30;;;;;;;23.22;67.24;99265.97;5056277;28;20419;-78
2021/07/02 04:46:54;;;;;;;3.92;3.15;;;;;;;23.31;66.66;99248.53;5070978;28;20139;-75
2021/07/02 04:49:31;;;;;;;4.43;2.85;;;;;;;23.42;66.60;99245.13;5110992;27;20144;-78
2021/07/02 04:52:09;;;;;;;3.80;3.35;;;;;;;23.48;65.83;99230.59;5070712;28;20406;-79
2021/07/02 04:54:47;;;;;;;6.32;3.25;;;;;;;23.76;65.62;99253.34;5111363;27;20136;-77
2021/07/02 04:57:25;;;;;;;6.90;3.20;;;;;;;23.89;64.91;99267.41;5110053;27;20419;-76
2021/07/02 05:00:05;;;;;;;6.03;3.20;;;;;;;23.79;64.68;99273.50;5093440;27;20133;-78
2021/07/02 05:02:42;;;;;;;3.55;3.17;;;;;;;23.73;64.28;99272.16;5089395;28;20401;-77
2021/07/02 05:05:19;;;;;;;5.22;2.90;;;;;;;23.73;63.96;99277.47;5049515;28;20150;-79
2021/07/02 05:07:57;;;;;;;4.40;3.13;;;;;;;23.64;64.16;99278.97;5109869;27;20411;-75
2021/07/02 05:10:36;;;;;;;5.95;3.15;;;;;;;23.51;64.02;99264.84;5109680;27;20408;-76
2021/07/02 05:13:13;;;;;;;11.00;3.65;;;;;;;23.43;63.86;99260.97;5109042;27;20400;-77
2021/07/02 05:15:52;;;;;;;3.25;2.80;;;;;;;23.10;64.10;99242.94;5068792;28;20165;-78
2021/07/02 05:18:31;;;;;;;6.32;3.15;;;;;;;23.04;64.00;99249.53;5070639;27;20410;-77
2021/07/02 05:21:09;;;;;;;3.85;2.90;;;;;;;23.13;64.16;99288.66;5068924;28;20411;-78
2021/07/02 05:23:46;;;;;;;4.88;3.05;;;;;;;23.12;64.30;99289.63;5088992;28;20134;-80
2021/07/02 05:26:22;;;;;;;3.67;2.92;;;;;;;23.07;64.17;99289.06;5049339;28;20156;-79
2021/07/02 05:28:59;;;;;;;6.22;3.45;;;;;;;23.00;64.32;99282.53;5068009;28;20150;-79
2021/07/02 05:31:34;;;;;;;11.70;4.28;;;;;;;22.86;64.50;99275.50;5104194;27;1423962;-78
2021/07/02 05:34:11;;;;;;;4.68;3.63;;;;;;;22.99;64.49;99280.81;5111198;27;20427;-79
2021/07/02 05:36:49;;;;;;;7.18;3.47;;;;;;;22.85;64.30;99277.28;5037621;28;20424;-77
2021/07/02 05:39:27;;;;;;;5.18;3.08;;;;;;;23.02;64.63;99293.88;5109553;27;20411;-77
2021/07/02 05:42:05;;;;;;;7.10;3.70;;;;;;;23.00;64.59;99271.91;5130218;27;20813;-76
2021/07/02 05:44:42;;;;;;;5.00;3.50;;;;;;;23.15;64.96;99270.84;5093602;27;20137;-75
2021/07/02 05:47:50;;;;;;;5.18;3.55;;;;;;;23.37;64.67;99279.97;5089000;27;20199;-77
2021/07/02 05:50:29;;;;;;;4.70;3.40;;;;;;;23.48;64.47;99265.94;5109704;27;20772;-76
2021/07/02 05:53:08;;;;;;;5.40;3.55;;;;;;;23.79;64.10;99278.81;5109517;27;20426;-80
2021/07/02 05:55:46;;;;;;;7.70;4.45;;;;;;;24.04;63.67;99268.13;5109696;27;20392;-79
2021/07/02 05:58:22;;;;;;;4.18;3.78;;;;;;;24.38;63.38;99266.59;5059352;28;20578;-75
2021/07/02 06:01:01;;;;;;;5.20;3.95;;;;;;;24.55;62.75;99255.53;5089457;28;20409;-77
2021/07/02 06:03:40;;;;;;;7.45;3.83;;;;;;;24.16;60.92;99180.50;5109291;27;20403;-76
2021/07/02 06:06:20;;;;;;;5.60;3.78;;;;;;;25.05;61.51;99270.38;5110543;27;20902;-78
2021/07/02 06:08:57;;;;;;;7.40;4.10;;;;;;;25.50;60.64;99273.09;5110089;27;20403;-79
2021/07/02 06:11:37;;;;;;;4.18;3.50;;;;;;;26.70;61.25;99266.06;5110344;27;20420;-79
2021/07/02 06:14:15;;;;;;;4.13;3.40;;;;;;;27.71;57.72;99266.28;5109476;27;20944;-79
2021/07/02 06:16:51;;;;;;;5.45;3.80;;;;;;;28.38;57.09;99261.16;5130954;27;20138;-80
2021/07/02 06:19:28;;;;;;;8.07;3.90;;;;;;;29.24;54.53;99232.66;5070219;28;20151;-78
2021/07/02 06:22:06;;;;;;;5.43;3.72;;;;;;;29.59;53.01;99257.06;5111304;27;20414;-77
2021/07/02 06:24:43;;;;;;;6.65;3.53;;;;;;;29.98;52.18;99247.94;5090733;27;20245;-76
2021/07/02 06:27:19;;;;;;;4.38;3.42;;;;;;;30.35;50.35;99237.03;5089650;28;20168;-82
2021/07/02 06:29:56;;;;;;;6.22;3.08;;;;;;;30.43;49.83;99246.16;5109871;27;20137;-79
2021/07/02 06:32:33;;;;;;;4.60;2.85;;;;;;;31.13;50.06;99242.59;5151194;27;20138;-77
2021/07/02 06:35:12;;;;;;;5.13;3.38;;;;;;;31.76;47.52;99237.84;5106835;27;20457;-77
2021/07/02 06:37:49;;;;;;;3.97;3.13;;;;;;;31.54;46.07;99240.09;5078658;27;2106153;-76
2021/07/02 06:40:26;;;;;;;6.22;3.13;;;;;;;31.16;46.20;99246.81;5069534;28;20395;-79
2021/07/02 06:43:04;;;;;;;4.78;3.47;;;;;;;30.44;46.65;99246.00;5107203;27;20418;-79
2021/07/02 06:45:41;;;;;;;7.43;3.75;;;;;;;29.83;46.58;99252.94;5110395;27;20151;-79
2021/07/02 06:48:18;;;;;;;8.73;3.10;;;;;;;29.39;47.23;99257.16;5069405;28;20775;-81
2021/07/02 06:50:56;;;;;;;6.57;4.05;;;;;;;29.05;48.27;99259.53;5109551;27;20129;-77
2021/07/02 06:53:34;;;;;;;8.27;4.18;;;;;;;28.89;48.63;99254.78;5072500;28;20395;-79
2021/07/02 06:56:14;;;;;;;6.07;3.95;;;;;;;28.71;48.78;99248.28;5109743;27;20419;-77
2021/07/02 06:58:51;;;;;;;5.10;3.15;;;;;;;28.59;49.07;99251.28;5055820;27;20404;-79
2021/07/02 07:01:28;;;;;;;5.20;3.60;;;;;;;28.44;48.86;99251.72;5101708;27;20138;-81
2021/07/02 07:04:05;;;;;;;5.18;3.22;;;;;;;28.25;49.50;99237.38;5111281;27;20136;-78
2021/07/02 07:06:43;;;;;;;4.10;3.42;;;;;;;28.39;49.43;99251.28;5111581;27;20404;-77
2021/07/02 07:09:19;;;;;;;5.13;3.22;;;;;;;29.14;49.39;99240.72;5111240;27;20177;-79
2021/07/02 07:11:57;;;;;;;5.45;2.50;;;;;;;29.63;48.70;99242.38;5137603;27;20815;-80
2021/07/02 07:14:34;;;;;;;4.97;3.13;;;;;;;29.91;47.38;99243.16;5091545;27;20428;-78
2021/07/02 07:17:11;;;;;;;3.20;2.53;;;;;;;29.91;47.34;99242.28;5068739;28;20149;-79
2021/07/02 07:19:51;;;;;;;4.32;2.90;;;;;;;29.93;46.84;99247.53;5068937;28;20932;-77
2021/07/02 07:22:30;;;;;;;7.35;2.90;;;;;;;29.89;46.52;99241.63;5111373;27;20128;-77
2021/07/02 07:25:08;;;;;;;3.47;2.80;;;;;;;29.71;46.35;99239.75;5112411;27;20419;-77
2021/07/02 07:27:47;;;;;;;3.60;2.88;;;;;;;29.52;46.42;99213.94;5111042;27;20128;-78
2021/07/02 07:30:24;;;;;;;3.40;2.90;;;;;;;29.84;46.97;99215.25;5108982;27;20526;-78
2021/07/02 07:33:03;;;;;;;5.00;3.15;;;;;;;30.49;46.52;99222.22;5110531;27;20128;-78
2021/07/02 07:35:43;;;;;;;5.13;3.50;;;;;;;31.83;45.86;99225.44;5116253;27;20129;-79
2021/07/02 07:38:21;;;;;;;4.00;3.20;;;;;;;32.22;44.16;99226.63;5089691;27;21489;-77
2021/07/02 07:41:01;;;;;;;7.90;3.33;;;;;;;33.82;43.52;99218.78;5088164;27;20790;-78
2021/07/02 07:43:38;;;;;;;7.28;2.92;;;;;;;36.04;40.06;99198.47;5142660;27;20193;-76
2021/07/02 07:46:17;;;;;;;6.20;3.10;;;;;;;37.16;38.52;99216.78;5108585;27;20499;-77
2021/07/02 07:48:55;;;;;;;4.85;3.17;;;;;;;37.49;36.21;99216.94;5108590;27;20140;-79
2021/07/02 07:51:36;;;;;;;5.40;3.45;;;;;;;38.16;35.58;99218.13;5109301;27;20182;-80
2021/07/02 07:54:15;;;;;;;6.20;3.70;;;;;;;39.32;32.70;99218.59;5109689;27;20466;-78
2021/07/02 07:56:54;;;;;;;4.65;3.22;;;;;;;39.98;31.30;99213.81;5080014;28;20942;-78
2021/07/02 07:59:34;;;;;;;6.05;3.45;;;;;;;39.76;31.19;99218.81;5090530;27;20420;-77
2021/07/02 08:02:11;;;;;;;4.32;3.60;;;;;;;39.29;31.27;99216.25;5109670;27;20408;-77
2021/07/02 08:04:49;;;;;;;5.30;3.58;;;;;;;38.84;31.43;99225.22;5109382;27;20404;-78
2021/07/02 08:07:27;;;;;;;4.25;3.50;;;;;;;38.32;31.42;99228.56;5109408;27;20144;-77
2021/07/02 08:10:08;;;;;;;4.18;3.10;;;;;;;38.82;31.34;99219.13;5109640;27;20400;-78
2021/07/02 08:12:46;;;;;;;5.32;4.00;;;;;;;38.73;30.46;99218.53;5150653;27;20425;-77
2021/07/02 08:15:24;;;;;;;5.45;3.40;;;;;;;37.53;31.20;99231.78;5068299;28;20417;-78
2021/07/02 08:18:01;;;;;;;6.32;3.95;;;;;;;36.53;32.12;99223.88;5109140;27;20137;-77
2021/07/02 08:20:38;;;;;;;5.18;3.45;;;;;;;35.65;33.42;99219.50;5108926;27;20141;-76
2021/07/02 08:23:15;;;;;;;7.25;3.88;;;;;;;34.76;34.43;99237.41;5109889;27;20400;-78
2021/07/02 08:25:54;;;;;;;6.10;3.70;;;;;;;34.37;35.50;99219.56;5069660;28;20407;-80
2021/07/02 08:31:15;;;;;;;6.75;3.20;;;;;;;36.99;33.20;99213.56;5109038;27;20407;-77
2021/07/02 08:33:52;;;;;;;5.00;2.67;;;;;;;38.57;32.26;99212.50;5109476;27;20136;-77
2021/07/02 08:36:30;;;;;;;5.47;3.13;;;;;;;40.75;29.74;99201.03;5041993;28;20413;-79
2021/07/02 08:39:07;;;;;;;4.85;2.80;;;;;;;42.42;28.15;99200.63;5110263;27;20136;-78
2021/07/02 08:41:45;;;;;;;6.55;3.33;;;;;;;42.95;26.46;99202.59;5069199;27;20896;-79
2021/07/02 08:44:21;;;;;;;4.85;3.25;;;;;;;42.38;25.83;99204.88;5095834;27;20467;-78
2021/07/02 08:46:59;;;;;;;10.20;3.65;;;;;;;41.80;26.51;99190.06;5109669;27;20143;-79
2021/07/02 08:49:37;;;;;;;4.18;2.63;;;;;;;43.17;26.39;99198.13;5090128;28;20742;-76
2021/07/02 08:52:14;;;;;;;6.65;3.35;;;;;;;42.45;25.33;99191.94;5068872;28;20417;-76
2021/07/02 08:54:51;;;;;;;5.97;3.40;;;;;;;41.09;26.20;99199.63;5110431;27;20128;-78
2021/07/02 08:57:30;;;;;;;5.20;3.75;;;;;;;40.10;27.29;99188.59;5068805;28;20574;-78
2021/07/02 09:00:08;;;;;;;5.50;3.60;;;;;;;39.38;28.31;99193.25;5091687;27;20766;-77
2021/07/02 09:02:46;;;;;;;7.47;3.78;;;;;;;41.10;27.46;99187.66;5110339;27;20407;-77
2021/07/02 09:05:35;;;;;;;7.22;3.90;;;;;;;43.10;25.93;99197.47;5111763;27;20403;-78
2021/07/02 09:08:15;;;;;;;6.00;3.63;;;;;;;44.79;24.07;99188.78;5110358;27;20396;-79
2021/07/02 09:10:53;;;;;;;6.10;3.30;;;;;;;44.97;23.15;99184.94;5109805;27;20506;-79
2021/07/02 09:13:40;;;;;;;6.78;3.47;;;;;;;44.75;22.92;99187.63;5109476;27;20136;-79
2021/07/02 09:16:22;;;;;;;7.63;3.53;;;;;;;44.73;23.11;99190.66;5109363;27;20779;-76
2021/07/02 09:19:23;;;;;;;5.32;3.88;;;;;;;42.92;23.32;99192.16;5110707;27;20407;-80
2021/07/02 09:22:27;;;;;;;5.45;4.10;;;;;;;40.64;25.38;99183.50;5069541;28;20414;-78
2021/07/02 09:25:11;;;;;;;9.32;4.35;;;;;;;39.04;26.60;99188.97;5109400;27;20408;-76
2021/07/02 09:27:49;;;;;;;4.72;4.00;;;;;;;37.99;28.11;99175.09;5084636;27;20398;-78
2021/07/02 09:30:29;;;;;;;5.95;4.45;;;;;;;37.85;28.70;99174.22;5109301;27;20411;-77
2021/07/02 09:33:13;;;;;;;5.22;4.18;;;;;;;39.20;28.14;99174.88;5068936;28;20409;-80
2021/07/02 09:35:54;;;;;;;4.82;4.20;;;;;;;41.13;26.40;99166.44;5092513;27;20429;-79
2021/07/02 09:38:41;;;;;;;7.60;4.28;;;;;;;42.88;24.93;99167.19;5109782;27;20408;-77
2021/07/02 09:41:16;;;;;;;5.13;3.70;;;;;;;43.45;24.19;99177.34;5103513;27;1436906;-79
2021/07/02 09:44:09;;;;;;;5.72;3.85;;;;;;;43.32;23.71;99162.06;5094160;27;1419791;-79
2021/07/02 09:47:01;;;;;;;8.02;4.63;;;;;;;41.63;23.63;99174.34;5112310;27;20799;-78
2021/07/02 09:49:27;;;;;;;;;;;;;;;39.84;25.93;99179.59;5110293;28;20036;-79
2021/07/02 09:52:09;;;;;;;6.68;3.63;;;;;;;38.99;27.60;99170.59;5110408;28;20294;-80
2021/07/02 09:54:36;;;;;;;5.45;3.80;;;;;;;39.49;27.23;99172.66;5110759;28;20093;-78
2021/07/02 09:57:19;;;;;;;6.25;4.05;;;;;;;39.25;26.39;99160.66;5109564;28;20059;-77
2021/07/02 10:00:03;;;;;;;11.00;4.10;;;;;;;38.41;26.52;99172.16;5102376;28;20040;-78
2021/07/02 10:02:30;;;;;;;5.22;3.60;;;;;;;37.41;27.43;99162.84;5107181;28;20290;-76
2021/07/02 10:05:00;;;;;;;5.13;3.65;;;;;;;36.30;28.34;99165.34;5092234;28;20036;-78
2021/07/02 10:07:27;;;;;;;4.80;3.92;;;;;;;35.46;30.27;99171.44;5091498;28;20058;-78
2021/07/02 10:09:53;;;;;;;5.82;4.13;;;;;;;34.68;30.92;99183.50;5090911;28;20047;-78
2021/07/02 10:12:21;;;;;;;5.57;4.10;;;;;;;33.94;32.27;99185.84;5082607;28;20048;-79
2021/07/02 10:14:51;;;;;;;6.07;4.35;;;;;;;33.34;32.96;99173.88;5069466;28;20041;-78
2021/07/02 10:17:18;;;;;;;7.25;4.60;;;;;;;32.94;34.17;99179.28;5068768;28;20049;-79
2021/07/02 10:19:47;;;;;;;6.72;5.07;;;;;;;32.49;34.52;99175.34;5069988;28;20102;-78
2021/07/02 10:22:19;;;;;;;9.40;4.45;;;;;;;32.16;34.85;99181.56;5069634;28;20135;-76
2021/07/02 10:24:51;;;;;;;6.28;4.40;;;;;;;31.99;35.74;99172.66;5053200;28;20041;-78
2021/07/02 10:27:17;;;;;;;7.32;4.63;;;;;;;31.88;35.63;99175.69;5070722;28;20521;-79
2021/07/02 10:29:46;;;;;;;5.70;4.70;;;;;;;31.83;36.06;99181.53;5052841;28;20131;-81
2021/07/02 10:32:13;;;;;;;8.63;4.85;;;;;;;31.72;36.60;99182.72;5070137;28;20059;-77
2021/07/02 10:34:39;;;;;;;7.63;4.85;;;;;;;31.59;36.87;99185.84;5055018;28;20048;-81
2021/07/02 10:37:06;;;;;;;6.25;4.05;;;;;;;31.85;36.88;99179.53;5072407;28;20045;-80
2021/07/02 10:39:35;;;;;;;5.72;3.85;;;;;;;32.12;36.71;99182.91;5073356;28;20055;-79
2021/07/02 10:42:06;;;;;;;6.35;3.80;;;;;;;32.12;36.71;99181.03;5072593;28;20063;-77
2021/07/02 10:44:32;;;;;;;9.27;4.13;;;;;;;32.25;36.32;99188.59;5044428;28;20060;-79
2021/07/02 10:46:58;;;;;;;5.90;3.38;;;;;;;32.27;36.75;99177.72;5038947;28;20099;-81
2021/07/02 10:49:38;;;;;;;5.47;3.30;;;;;;;32.25;36.44;99161.69;5055344;28;20447;-81
2021/07/02 10:52:22;;;;;;;3.95;3.50;;;;;;;32.30;36.80;99167.44;5053190;28;20255;-76
2021/07/02 10:54:53;;;;;;;6.30;3.20;;;;;;;32.36;36.60;99171.31;5055619;28;20072;-79
2021/07/02 10:57:20;;;;;;;;;;;;;;;32.43;36.78;99171.50;5048177;28;20497;-77
2021/07/02 10:59:48;;;;;;;7.40;3.90;;;;;;;32.31;37.08;99176.38;5061653;28;20019;-79
2021/07/02 11:02:20;;;;;;;6.45;3.90;;;;;;;32.00;37.15;99161.72;5061783;28;20036;-78
2021/07/02 11:04:56;;;;;;;7.38;3.92;;;;;;;31.95;37.40;99164.09;5062423;28;20036;-78
2021/07/02 11:07:22;;;;;;;6.90;3.50;;;;;;;31.80;37.06;99153.16;5070418;28;20068;-78
2021/07/02 11:09:48;;;;;;;5.63;3.65;;;;;;;31.85;36.88;99171.47;5061970;28;20047;-76
2021/07/02 11:12:16;;;;;;;5.43;3.58;;;;;;;31.67;37.71;99169.75;5082900;28;20048;-77
2021/07/02 11:14:51;;;;;;;5.10;3.47;;;;;;;31.47;37.44;99174.56;5073705;28;20143;-78
2021/07/02 11:17:33;;;;;;;4.43;3.58;;;;;;;31.54;37.50;99162.16;5074432;28;20025;-78
2021/07/02 11:20:08;;;;;;;7.40;3.95;;;;;;;31.75;37.62;99174.31;5076506;28;20068;-77
2021/07/02 11:22:35;;;;;;;5.68;3.53;;;;;;;32.04;37.31;99170.31;5075481;28;20044;-77
2021/07/02 11:25:06;;;;;;;5.15;3.35;;;;;;;32.21;37.21;99176.53;5070436;28;20041;-78
2021/07/02 11:27:40;;;;;;;9.30;3.30;;;;;;;32.12;37.29;99186.44;5073937;28;20063;-77
2021/07/02 11:32:54;;;;;;;7.38;3.20;;;;;;;31.68;37.63;99175.94;5076018;28;20186;-78
2021/07/02 11:35:26;;;;;;;9.35;3.60;;;;;;;31.64;38.27;99172.75;5057251;28;20037;-79
2021/07/02 11:38:02;;;;;;;5.65;3.67;;;;;;;31.51;37.83;99175.91;5075601;28;20045;-80
2021/07/02 11:40:48;;;;;;;5.93;3.30;;;;;;;31.59;37.77;99174.25;5070259;28;20075;-80
2021/07/02 11:43:41;;;;;;;6.40;3.15;;;;;;;31.47;38.13;99163.81;5053407;28;20060;-78
2021/07/02 11:46:12;;;;;;;4.85;3.30;;;;;;;31.37;38.42;99160.44;5038192;28;20052;-78
2021/07/02 11:48:41;;;;;;;3.95;3.22;;;;;;;31.33;38.73;99164.47;5038237;28;20045;-77
2021/07/02 11:51:19;;;;;;;6.47;3.30;;;;;;;31.22;38.32;99177.19;5040046;28;20060;-80
2021/07/02 11:54:01;;;;;;;6.85;3.80;;;;;;;31.00;38.55;99167.00;5035890;28;20043;-78
2021/07/02 11:56:31;;;;;;;5.40;3.67;;;;;;;30.82;38.52;99177.81;5035583;28;20146;-77
2021/07/02 11:59:01;;;;;;;5.93;3.73;;;;;;;30.56;39.09;99179.53;5049440;28;20060;-79
2021/07/02 12:01:38;;;;;;;3.95;2.97;;;;;;;30.33;39.51;99182.72;5071628;28;20280;-76
2021/07/02 12:04:12;;;;;;;6.35;3.58;;;;;;;30.27;39.59;99177.97;5055893;28;20207;-77
2021/07/02 12:06:43;;;;;;;5.68;3.75;;;;;;;30.31;39.52;99184.69;5057389;28;20123;-78
2021/07/02 12:09:14;;;;;;;3.95;3.17;;;;;;;30.32;39.74;99174.78;5055853;28;20139;-76
2021/07/02 12:11:52;;;;;;;6.40;3.58;;;;;;;30.35;39.69;99195.94;5072215;28;21420;-80
2021/07/02 12:14:29;;;;;;;5.95;5.05;;;;;;;30.25;40.18;99192.50;5038297;28;20040;-78
2021/07/02 12:16:57;;;;;;;4.63;3.47;;;;;;;30.22;40.20;99188.31;5056201;28;20080;-76
2021/07/02 12:19:28;;;;;;;7.55;4.95;;;;;;;30.12;39.99;99191.09;5053418;28;20047;-78
2021/07/02 12:21:54;;;;;;;9.82;3.17;;;;;;;30.10;40.38;99198.44;5052890;28;20055;-77
2021/07/02 12:24:23;;;;;;;3.72;2.95;;;;;;;30.13;40.28;99200.81;5054187;28;20504;-78
2021/07/02 12:26:54;;;;;;;5.28;3.40;;;;;;;30.01;40.37;99178.75;5054700;28;20131;-77
2021/07/02 12:29:21;;;;;;;4.63;2.70;;;;;;;30.04;40.66;99197.22;5054527;28;20083;-76
2021/07/02 12:31:53;;;;;;;6.68;3.05;;;;;;;29.88;40.40;99186.31;5056142;28;20408;-77
2021/07/02 12:34:24;;;;;;;5.80;3.17;;;;;;;29.85;40.43;99194.66;5053078;28;20069;-78
2021/07/02 12:36:57;;;;;;;6.03;3.10;;;;;;;29.75;40.51;99184.84;5053515;28;20044;-78
2021/07/02 12:39:30;;;;;;;8.05;3.30;;;;;;;29.74;40.79;99185.84;5052743;28;20147;-77
2021/07/02 12:42:02;;;;;;;5.60;2.63;;;;;;;29.45;40.88;99175.34;5054531;28;20102;-80
2021/07/02 12:44:29;;;;;;;4.13;2.20;;;;;;;29.16;41.57;99187.88;5058895;28;20108;-77
2021/07/02 12:46:55;;;;;;;4.28;2.58;;;;;;;28.94;42.20;99190.94;5037349;28;20105;-77